Time;durP1;ratioP1;P1;durP2;ratioP2;P2;SDS_P1;SDS_P2;PMS_P1;PMS_P2;Temp;Humidity;BMP_temperature;BMP_pressure;BME280_temperature;BME280_humidity;BME280_pressure;Samples;Min_cycle;Max_cycle;Signal;HPM_P1;HPM_P2
2023/08/19 00:00:53;;;;;;;10.20;7.63;;;21.40;99.90;;;;;;5139945;28;20740;-47
2023/08/19 00:03:24;;;;;;;13.50;8.87;;;21.40;99.90;;;;;;5144368;28;20696;-47
2023/08/19 00:05:55;;;;;;;10.13;9.10;;;21.30;99.90;;;;;;5130098;28;20181;-47
2023/08/19 00:08:26;;;;;;;10.20;8.60;;;21.30;99.90;;;;;;5144124;28;20330;-48
2023/08/19 00:10:56;;;;;;;9.77;8.27;;;21.30;99.90;;;;;;5145767;28;20578;-48
2023/08/19 00:13:27;;;;;;;13.40;9.30;;;21.20;99.90;;;;;;5142775;28;20198;-48
2023/08/19 00:15:58;;;;;;;10.57;9.40;;;21.20;99.90;;;;;;5126232;28;20277;-47
2023/08/19 00:18:29;;;;;;;9.83;8.73;;;21.20;99.90;;;;;;5145023;28;20244;-47
2023/08/19 00:21:00;;;;;;;12.27;9.23;;;21.20;99.90;;;;;;5120549;28;20466;-47
2023/08/19 00:23:31;;;;;;;10.60;8.50;;;21.20;99.90;;;;;;5124530;28;20568;-47
2023/08/19 00:26:01;;;;;;;11.57;9.60;;;21.10;99.90;;;;;;5139699;28;20871;-46
2023/08/19 00:28:33;;;;;;;8.50;7.70;;;21.10;99.90;;;;;;5146010;28;20614;-47
2023/08/19 00:31:03;;;;;;;8.77;7.97;;;21.10;99.90;;;;;;5144200;28;20205;-47
2023/08/19 00:33:34;;;;;;;12.63;8.10;;;21.00;99.90;;;;;;5128339;28;20455;-47
2023/08/19 00:36:05;;;;;;;9.40;8.40;;;21.00;99.90;;;;;;5129110;28;20197;-48
2023/08/19 00:38:36;;;;;;;11.73;9.30;;;21.00;99.90;;;;;;5143585;28;20475;-48
2023/08/19 00:41:07;;;;;;;12.73;8.73;;;21.00;99.90;;;;;;5130011;28;20233;-46
2023/08/19 00:43:37;;;;;;;11.37;9.10;;;21.00;99.90;;;;;;5126804;28;20208;-47
2023/08/19 00:46:08;;;;;;;12.07;8.77;;;20.90;99.90;;;;;;5127703;28;20638;-47
2023/08/19 00:48:39;;;;;;;11.53;9.30;;;20.90;99.90;;;;;;5144161;28;20858;-47
2023/08/19 00:51:10;;;;;;;10.40;8.57;;;20.90;99.90;;;;;;5144464;28;20717;-48
2023/08/19 00:53:41;;;;;;;12.90;9.40;;;20.80;99.90;;;;;;5130101;28;20268;-48
2023/08/19 00:56:12;;;;;;;10.93;7.93;;;20.80;99.90;;;;;;5128642;28;20185;-48
2023/08/19 00:58:43;;;;;;;9.07;8.17;;;20.80;99.90;;;;;;5134405;28;20205;-47
2023/08/19 01:01:13;;;;;;;9.83;8.63;;;20.80;99.90;;;;;;5139055;28;21494;-47
2023/08/19 01:03:44;;;;;;;12.73;8.43;;;20.80;99.90;;;;;;5148077;28;20208;-48
2023/08/19 01:06:44;;;;;;;11.07;9.90;;;20.70;99.90;;;;;;5146502;28;20178;-46
2023/08/19 01:09:24;;;;;;;10.03;9.03;;;20.70;99.90;;;;;;5065299;28;20189;-47
2023/08/19 01:12:12;;;;;;;10.77;9.50;;;20.70;99.90;;;;;;5145633;28;20461;-48
2023/08/19 01:14:55;;;;;;;11.40;10.20;;;20.70;99.90;;;;;;5130055;28;20488;-46
2023/08/19 01:17:29;;;;;;;11.53;8.90;;;20.60;99.90;;;;;;5141770;28;20452;-46
2023/08/19 01:20:00;;;;;;;14.40;9.83;;;20.60;99.90;;;;;;5130507;28;20856;-47
2023/08/19 01:22:39;;;;;;;14.73;10.10;;;20.60;99.90;;;;;;5144430;28;20545;-47
2023/08/19 01:25:11;;;;;;;10.30;9.40;;;20.60;99.90;;;;;;5145942;28;20436;-46
2023/08/19 01:27:41;;;;;;;12.70;9.33;;;20.60;99.90;;;;;;5131479;28;20492;-46
2023/08/19 01:30:13;;;;;;;11.77;10.27;;;20.50;99.90;;;;;;5143521;28;21305;-46
2023/08/19 01:32:44;;;;;;;12.00;10.73;;;20.50;99.90;;;;;;5131700;28;20208;-46
2023/08/19 01:35:17;;;;;;;10.60;9.60;;;20.50;99.90;;;;;;5146928;28;20465;-46
2023/08/19 01:38:00;;;;;;;14.80;9.93;;;20.50;99.90;;;;;;5132719;28;20789;-46
2023/08/19 01:40:32;;;;;;;13.03;9.97;;;20.50;99.90;;;;;;5147233;28;20487;-47
2023/08/19 01:43:05;;;;;;;14.60;10.83;;;20.40;99.90;;;;;;5147129;28;20436;-46
2023/08/19 01:45:36;;;;;;;12.23;10.00;;;20.40;99.90;;;;;;5129278;28;20445;-47
2023/08/19 01:48:07;;;;;;;12.10;9.57;;;20.40;99.90;;;;;;5149378;28;20445;-48
2023/08/19 01:50:37;;;;;;;10.20;9.20;;;20.40;99.90;;;;;;5148097;28;20511;-46
2023/08/19 01:53:08;;;;;;;16.13;11.07;;;20.30;99.90;;;;;;5151385;28;20199;-45
2023/08/19 01:55:39;;;;;;;10.33;9.33;;;20.40;99.90;;;;;;5131103;28;20197;-46
2023/08/19 01:58:10;;;;;;;12.07;10.30;;;20.30;99.90;;;;;;5134870;28;20202;-47
2023/08/19 02:00:40;;;;;;;13.63;9.87;;;20.30;99.90;;;;;;5148423;28;20217;-46
2023/08/19 02:03:11;;;;;;;10.73;9.63;;;20.30;99.90;;;;;;5148395;28;20289;-46
2023/08/19 02:05:42;;;;;;;16.20;10.90;;;20.30;99.90;;;;;;5146885;28;20241;-47
2023/08/19 02:08:12;;;;;;;13.10;10.20;;;20.20;99.90;;;;;;5126201;28;20185;-47
2023/08/19 02:10:43;;;;;;;10.40;9.40;;;20.20;99.90;;;;;;5143763;28;20209;-47
2023/08/19 02:13:14;;;;;;;12.47;10.03;;;20.20;99.90;;;;;;5145956;28;20190;-48
2023/08/19 02:15:45;;;;;;;10.93;9.87;;;20.20;99.90;;;;;;5143975;28;20193;-47
2023/08/19 02:18:17;;;;;;;19.80;9.57;;;20.20;99.90;;;;;;5142170;28;20328;-46
2023/08/19 02:20:48;;;;;;;14.80;10.90;;;20.20;99.90;;;;;;5131721;28;20247;-46
2023/08/19 02:23:19;;;;;;;11.17;10.00;;;20.20;99.90;;;;;;5129628;28;20540;-46
2023/08/19 02:25:51;;;;;;;12.70;10.60;;;20.10;99.90;;;;;;5148900;28;20184;-46
2023/08/19 02:28:22;;;;;;;19.73;11.53;;;20.10;99.90;;;;;;5129077;28;20519;-46
2023/08/19 02:30:53;;;;;;;12.03;10.80;;;20.10;99.90;;;;;;5145325;28;20447;-45
2023/08/19 02:33:24;;;;;;;14.53;10.53;;;20.10;99.90;;;;;;5146489;28;20197;-46
2023/08/19 02:35:55;;;;;;;13.53;10.10;;;20.00;99.90;;;;;;5145195;28;20433;-45
2023/08/19 02:38:25;;;;;;;10.00;9.00;;;20.00;99.90;;;;;;5146060;28;20264;-46
2023/08/19 02:40:58;;;;;;;12.30;10.20;;;20.00;99.90;;;;;;5145963;28;20288;-46
2023/08/19 02:43:28;;;;;;;11.57;10.37;;;20.00;99.90;;;;;;5151407;28;20220;-46
2023/08/19 02:45:59;;;;;;;12.93;10.47;;;20.00;99.90;;;;;;5147680;28;20445;-46
2023/08/19 02:48:30;;;;;;;16.80;11.20;;;20.00;99.90;;;;;;5145306;28;20186;-46
2023/08/19 02:51:01;;;;;;;12.10;10.73;;;20.00;99.90;;;;;;5133068;28;20635;-45
2023/08/19 02:53:32;;;;;;;15.80;11.00;;;20.00;99.90;;;;;;5143912;28;20189;-45
2023/08/19 02:56:06;;;;;;;13.93;10.33;;;20.00;99.90;;;;;;5138381;28;20423;-46
2023/08/19 02:58:36;;;;;;;12.03;10.50;;;20.00;99.90;;;;;;5147461;28;20185;-46
2023/08/19 03:01:12;;;;;;;15.60;11.40;;;19.90;99.90;;;;;;5144952;28;20461;-47
2023/08/19 03:03:44;;;;;;;12.53;11.07;;;19.90;99.90;;;;;;5131080;28;20520;-46
2023/08/19 03:06:15;;;;;;;15.73;10.90;;;19.90;99.90;;;;;;5145354;28;20445;-46
2023/08/19 03:08:45;;;;;;;12.10;10.40;;;19.80;99.90;;;;;;5131984;28;20429;-46
2023/08/19 03:11:16;;;;;;;13.53;10.03;;;19.80;99.90;;;;;;5127630;28;20209;-48
2023/08/19 03:13:47;;;;;;;14.97;12.33;;;19.80;99.90;;;;;;5140905;28;20285;-46
2023/08/19 03:16:18;;;;;;;16.43;11.60;;;19.80;99.90;;;;;;5145177;28;20646;-46
2023/08/19 03:18:48;;;;;;;11.93;10.80;;;19.80;99.90;;;;;;5126066;28;20209;-46
2023/08/19 03:21:19;;;;;;;16.23;12.07;;;19.80;99.90;;;;;;5118013;28;20201;-45
2023/08/19 03:23:50;;;;;;;33.43;11.30;;;19.70;99.90;;;;;;5149695;28;20185;-47
2023/08/19 03:26:21;;;;;;;12.77;10.60;;;19.70;99.90;;;;;;5142433;28;20190;-46
2023/08/19 03:28:51;;;;;;;13.60;11.53;;;19.70;99.90;;;;;;5143823;28;20184;-46
2023/08/19 03:31:22;;;;;;;13.27;10.93;;;19.70;99.90;;;;;;5140767;28;20209;-46
2023/08/19 03:33:53;;;;;;;15.23;11.67;;;19.60;99.90;;;;;;5142624;28;20574;-45
2023/08/19 03:36:24;;;;;;;13.23;11.80;;;19.60;99.90;;;;;;5141889;28;20181;-46
2023/08/19 03:38:54;;;;;;;15.00;12.40;;;19.60;99.90;;;;;;5130020;28;20461;-46
2023/08/19 03:41:25;;;;;;;16.80;13.47;;;19.60;99.90;;;;;;5142922;28;20280;-46
2023/08/19 03:43:56;;;;;;;13.13;11.70;;;19.60;99.90;;;;;;5129989;28;20173;-47
2023/08/19 03:46:26;;;;;;;14.97;12.73;;;19.60;99.90;;;;;;5147448;28;20181;-47
2023/08/19 03:48:57;;;;;;;14.40;12.10;;;19.60;99.90;;;;;;5143344;28;20189;-45
2023/08/19 03:51:29;;;;;;;14.33;11.27;;;19.60;99.90;;;;;;5127167;28;20309;-46
2023/08/19 03:54:00;;;;;;;14.40;12.13;;;19.60;99.90;;;;;;5146405;28;21050;-46
2023/08/19 03:56:31;;;;;;;16.53;12.93;;;19.60;99.90;;;;;;5148354;28;20519;-47
2023/08/19 03:59:01;;;;;;;14.67;12.90;;;19.60;99.90;;;;;;5131823;28;20209;-45
2023/08/19 04:01:32;;;;;;;14.40;12.17;;;19.60;99.90;;;;;;5141505;28;20205;-47
2023/08/19 04:04:03;;;;;;;16.67;12.20;;;19.70;99.90;;;;;;5148824;28;20189;-46
2023/08/19 04:06:34;;;;;;;14.67;12.30;;;19.60;99.90;;;;;;5139880;28;20186;-46
2023/08/19 04:09:06;;;;;;;18.27;11.43;;;19.70;99.90;;;;;;5145132;28;20448;-47
2023/08/19 04:11:37;;;;;;;13.90;11.43;;;19.70;99.90;;;;;;5142667;28;20820;-46
2023/08/19 04:14:09;;;;;;;14.63;12.97;;;19.70;99.90;;;;;;5145548;28;20519;-46
2023/08/19 04:16:39;;;;;;;17.97;12.80;;;19.80;99.90;;;;;;5145754;28;20444;-46
2023/08/19 04:19:10;;;;;;;17.17;12.87;;;19.80;99.90;;;;;;5123860;28;20469;-46
2023/08/19 04:21:41;;;;;;;14.37;12.73;;;19.90;99.90;;;;;;5145641;28;20273;-46
2023/08/19 04:24:11;;;;;;;19.23;12.60;;;19.90;99.90;;;;;;5144474;28;20219;-46
2023/08/19 04:26:42;;;;;;;16.00;12.30;;;20.00;99.90;;;;;;5116910;28;20185;-46
2023/08/19 04:29:13;;;;;;;20.27;13.17;;;20.10;99.90;;;;;;5137992;28;20189;-46
2023/08/19 04:31:43;;;;;;;15.20;12.67;;;20.10;99.90;;;;;;5143177;28;20209;-47
2023/08/19 04:34:14;;;;;;;14.10;12.00;;;20.20;99.90;;;;;;5141646;28;20268;-48
2023/08/19 04:36:45;;;;;;;15.33;12.40;;;20.30;99.90;;;;;;5139217;28;20193;-46
2023/08/19 04:39:16;;;;;;;16.23;12.67;;;20.30;99.90;;;;;;5125398;28;20293;-47
2023/08/19 04:41:46;;;;;;;15.90;12.07;;;20.40;99.90;;;;;;5144040;28;20557;-46
2023/08/19 04:44:17;;;;;;;18.27;13.60;;;20.50;99.90;;;;;;5126812;28;20617;-47
2023/08/19 04:46:48;;;;;;;15.73;13.10;;;20.60;99.90;;;;;;5141713;28;20557;-45
2023/08/19 04:49:20;;;;;;;14.93;11.93;;;20.60;99.90;;;;;;5146902;28;20550;-45
2023/08/19 04:51:51;;;;;;;24.47;13.57;;;20.80;99.90;;;;;;5145068;28;20205;-47
2023/08/19 04:54:22;;;;;;;14.23;12.73;;;20.90;99.90;;;;;;5144482;28;20911;-46
2023/08/19 04:56:52;;;;;;;15.87;12.70;;;21.20;99.90;;;;;;5143923;28;20186;-47
2023/08/19 04:59:23;;;;;;;13.63;12.10;;;21.40;99.90;;;;;;5147266;28;20746;-47
2023/08/19 05:01:54;;;;;;;18.60;13.20;;;21.60;99.90;;;;;;5129195;28;20686;-45
2023/08/19 05:04:24;;;;;;;22.63;13.03;;;22.30;99.90;;;;;;5128768;28;20186;-46
2023/08/19 05:06:55;;;;;;;19.40;11.60;;;22.90;99.90;;;;;;5143576;28;20173;-46
2023/08/19 05:09:26;;;;;;;17.03;11.87;;;23.40;99.90;;;;;;5142709;28;20638;-46
2023/08/19 05:11:57;;;;;;;13.60;11.87;;;23.40;99.90;;;;;;5144255;28;20201;-46
2023/08/19 05:14:27;;;;;;;14.90;12.77;;;23.30;99.90;;;;;;5128461;28;20201;-44
2023/08/19 05:16:58;;;;;;;18.33;13.17;;;23.10;99.90;;;;;;5139741;28;20277;-45
2023/08/19 05:19:31;;;;;;;14.87;12.80;;;22.80;99.90;;;;;;5142903;28;20205;-48
2023/08/19 05:22:02;;;;;;;13.67;12.20;;;22.80;99.90;;;;;;5130537;28;20197;-45
2023/08/19 05:24:33;;;;;;;17.00;12.87;;;22.80;99.90;;;;;;5143525;28;20491;-45
2023/08/19 05:27:03;;;;;;;14.90;12.13;;;23.10;99.90;;;;;;5143811;28;20524;-47
2023/08/19 05:29:35;;;;;;;13.97;11.73;;;23.20;99.90;;;;;;5144431;28;20735;-47
2023/08/19 05:32:06;;;;;;;20.40;13.73;;;23.10;99.90;;;;;;5143368;28;20201;-46
2023/08/19 05:34:37;;;;;;;16.47;13.17;;;23.30;99.90;;;;;;5141066;28;21047;-47
2023/08/19 05:37:07;;;;;;;14.00;10.83;;;24.30;99.90;;;;;;5142812;28;20177;-45
2023/08/19 05:39:38;;;;;;;17.87;11.70;;;25.50;99.90;;;;;;5140428;28;20206;-45
2023/08/19 05:42:11;;;;;;;12.90;10.73;;;26.50;99.90;;;;;;5135604;28;20217;-47
2023/08/19 05:44:42;;;;;;;12.97;11.40;;;27.50;99.90;;;;;;5142061;28;20184;-46
2023/08/19 05:47:14;;;;;;;12.57;10.73;;;27.60;99.90;;;;;;5144219;28;20437;-46
2023/08/19 05:49:44;;;;;;;18.27;11.27;;;26.90;99.90;;;;;;5126278;28;20284;-49
2023/08/19 05:52:15;;;;;;;12.13;9.10;;;26.60;99.90;;;;;;5135275;28;20548;-47
2023/08/19 05:54:46;;;;;;;12.30;10.13;;;27.00;99.90;;;;;;5136123;28;20562;-46
2023/08/19 05:57:16;;;;;;;14.87;11.40;;;27.10;99.90;;;;;;5144252;28;20213;-46
2023/08/19 05:59:47;;;;;;;15.50;9.63;;;26.20;99.90;;;;;;5143280;28;20209;-45
2023/08/19 06:02:18;;;;;;;12.97;10.80;;;25.20;99.90;;;;;;5143031;28;20209;-47
2023/08/19 06:04:49;;;;;;;15.00;11.07;;;24.60;99.90;;;;;;5142730;28;20204;-47
2023/08/19 06:07:25;;;;;;;14.57;12.20;;;24.10;99.90;;;;;;5124848;28;20178;-46
2023/08/19 06:09:56;;;;;;;16.83;11.20;;;23.80;99.90;;;;;;5143657;28;20778;-46
2023/08/19 06:12:26;;;;;;;14.97;11.60;;;23.60;99.90;;;;;;5148020;28;20491;-46
2023/08/19 06:14:57;;;;;;;18.60;11.77;;;23.50;99.90;;;;;;5147558;28;20186;-47
2023/08/19 06:17:28;;;;;;;15.40;12.47;;;23.40;99.90;;;;;;5144872;28;20190;-46
2023/08/19 06:19:59;;;;;;;19.53;12.13;;;23.40;99.90;;;;;;5145145;28;20224;-45
2023/08/19 06:22:29;;;;;;;15.83;12.43;;;23.40;99.90;;;;;;5126305;28;20202;-46
2023/08/19 06:25:01;;;;;;;13.43;12.00;;;23.40;99.90;;;;;;5142200;28;20221;-46
2023/08/19 06:27:31;;;;;;;19.27;12.63;;;23.50;99.90;;;;;;5141236;28;20201;-46
2023/08/19 06:30:02;;;;;;;17.30;13.07;;;23.60;99.90;;;;;;5137264;28;20851;-47
2023/08/19 06:32:33;;;;;;;15.10;11.70;;;23.90;99.90;;;;;;5139343;28;20224;-45
2023/08/19 06:35:05;;;;;;;17.90;11.77;;;24.30;99.90;;;;;;5140243;28;20203;-46
2023/08/19 06:37:41;;;;;;;21.80;12.87;;;24.30;99.90;;;;;;5141341;28;20441;-46
2023/08/19 06:40:16;;;;;;;21.23;12.33;;;24.10;99.90;;;;;;5125337;28;20885;-47
2023/08/19 06:42:49;;;;;;;18.83;12.10;;;24.20;99.90;;;;;;5139610;28;20828;-47
2023/08/19 06:45:21;;;;;;;27.43;12.73;;;24.60;99.90;;;;;;5142773;28;20944;-47
2023/08/19 06:47:53;;;;;;;15.23;12.13;;;24.50;99.90;;;;;;5144285;28;20460;-46
2023/08/19 06:50:24;;;;;;;15.27;11.23;;;24.40;99.90;;;;;;5140042;28;20441;-46
2023/08/19 06:52:55;;;;;;;22.80;12.97;;;24.20;99.90;;;;;;5129619;28;20846;-45
2023/08/19 06:55:26;;;;;;;13.00;11.50;;;23.90;99.90;;;;;;5127584;28;20201;-45
2023/08/19 06:58:06;;;;;;;23.23;13.13;;;24.60;99.90;;;;;;5143321;28;20517;-47
2023/08/19 07:00:39;;;;;;;14.53;10.43;;;27.00;99.90;;;;;;5122986;28;20221;-47
2023/08/19 07:03:12;;;;;;;11.60;9.90;;;29.90;99.90;;;;;;5138444;28;20973;-46
2023/08/19 07:05:45;;;;;;;14.40;10.47;;;32.50;99.90;;;;;;5144518;28;20925;-46
2023/08/19 07:08:18;;;;;;;15.43;10.07;;;34.90;89.10;;;;;;5129374;28;20475;-46
2023/08/19 07:10:49;;;;;;;17.23;9.80;;;36.00;69.40;;;;;;5144098;28;20459;-46
2023/08/19 07:13:20;;;;;;;10.23;9.23;;;35.60;65.60;;;;;;5130144;28;20536;-48
2023/08/19 07:15:58;;;;;;;11.73;8.90;;;35.30;65.20;;;;;;5146536;28;20992;-47
2023/08/19 07:18:35;;;;;;;9.07;8.13;;;35.50;63.70;;;;;;5133797;28;20185;-47
2023/08/19 07:21:09;;;;;;;10.63;9.33;;;36.10;61.60;;;;;;5139782;28;20255;-49
2023/08/19 07:23:41;;;;;;;14.97;9.20;;;36.90;58.50;;;;;;5121875;28;20737;-47
2023/08/19 07:26:12;;;;;;;11.77;9.97;;;37.00;56.60;;;;;;5121883;28;20221;-51
2023/08/19 07:28:43;;;;;;;9.63;8.75;;;37.20;55.90;;;;;;5126328;28;20182;-49
2023/08/19 07:31:16;;;;;;;8.20;7.43;;;37.60;54.40;;;;;;5134057;28;20648;-47
2023/08/19 07:33:48;;;;;;;17.15;8.70;;;38.10;53.60;;;;;;5142322;28;20642;-47
2023/08/19 07:36:18;;;;;;;8.88;7.97;;;38.50;51.50;;;;;;5123276;28;20185;-48
2023/08/19 07:38:49;;;;;;;13.18;9.10;;;38.20;52.30;;;;;;5141993;28;20208;-46
2023/08/19 07:41:20;;;;;;;10.60;8.80;;;38.40;50.80;;;;;;5127693;28;20201;-48
2023/08/19 07:43:51;;;;;;;9.27;8.35;;;38.70;50.00;;;;;;5144959;28;20650;-48
2023/08/19 07:46:22;;;;;;;11.35;10.15;;;38.60;49.80;;;;;;5121067;28;20193;-48
2023/08/19 07:48:52;;;;;;;10.52;9.13;;;38.60;49.40;;;;;;5129625;28;20186;-48
2023/08/19 07:51:23;;;;;;;8.02;6.90;;;39.00;48.90;;;;;;5131355;28;20650;-49
2023/08/19 07:53:54;;;;;;;13.57;8.70;;;39.80;48.10;;;;;;5140164;28;20176;-47
2023/08/19 07:56:25;;;;;;;10.10;8.32;;;40.40;46.30;;;;;;5136978;28;20177;-48
2023/08/19 07:58:55;;;;;;;11.23;8.85;;;40.50;45.10;;;;;;5146838;28;20215;-47
2023/08/19 08:01:26;;;;;;;14.38;9.32;;;39.50;46.20;;;;;;5139329;28;20200;-47
2023/08/19 08:03:57;;;;;;;7.50;6.97;;;38.70;47.70;;;;;;5137265;28;20221;-47
2023/08/19 08:06:27;;;;;;;10.73;9.35;;;38.90;47.90;;;;;;5143712;28;20192;-50
2023/08/19 08:08:58;;;;;;;8.98;8.18;;;39.00;46.30;;;;;;5133146;28;20681;-47
2023/08/19 08:11:29;;;;;;;11.20;9.30;;;38.40;48.00;;;;;;5136985;28;20268;-48
2023/08/19 08:14:00;;;;;;;9.38;8.48;;;38.10;48.30;;;;;;5142922;28;20272;-46
2023/08/19 08:16:30;;;;;;;11.10;8.50;;;38.20;49.00;;;;;;5137350;28;20244;-47
2023/08/19 08:19:01;;;;;;;10.57;8.98;;;38.80;47.40;;;;;;5124146;28;20720;-48
2023/08/19 08:21:32;;;;;;;15.25;8.73;;;38.70;46.40;;;;;;5137531;28;20210;-48
2023/08/19 08:24:03;;;;;;;9.23;8.40;;;38.70;46.50;;;;;;5135901;28;20190;-47
2023/08/19 08:26:33;;;;;;;8.80;7.90;;;39.00;46.70;;;;;;5132746;28;20185;-47
2023/08/19 08:29:04;;;;;;;8.05;7.38;;;39.40;46.00;;;;;;5126046;28;20751;-50
2023/08/19 08:31:35;;;;;;;10.30;8.15;;;39.80;45.10;;;;;;5117246;28;20217;-49
2023/08/19 08:34:06;;;;;;;9.82;8.90;;;39.90;45.50;;;;;;5131869;28;20200;-48
2023/08/19 08:36:37;;;;;;;11.93;8.50;;;38.90;45.80;;;;;;5131603;28;23278;-51
2023/08/19 08:39:07;;;;;;;9.18;7.40;;;38.10;47.80;;;;;;5137994;28;20239;-48
2023/08/19 08:41:42;;;;;;;9.65;8.27;;;37.00;49.50;;;;;;5136752;28;20728;-46
2023/08/19 08:44:13;;;;;;;9.05;8.20;;;35.90;51.60;;;;;;5134245;28;20203;-48
2023/08/19 08:46:45;;;;;;;7.55;6.88;;;35.20;53.00;;;;;;5137400;28;20274;-48
2023/08/19 08:49:17;;;;;;;11.40;8.77;;;34.40;54.60;;;;;;5136438;28;20189;-49
2023/08/19 08:51:48;;;;;;;9.03;8.10;;;33.60;55.20;;;;;;5120888;28;20201;-47
2023/08/19 08:54:21;;;;;;;8.37;7.00;;;32.80;57.40;;;;;;5143642;28;20196;-47
2023/08/19 08:56:52;;;;;;;10.30;7.80;;;31.80;57.90;;;;;;5128743;28;20181;-48
2023/08/19 08:59:23;;;;;;;8.63;7.73;;;30.90;59.50;;;;;;5114131;28;20216;-48
2023/08/19 09:01:56;;;;;;;7.73;6.93;;;30.20;62.20;;;;;;5122292;28;20213;-47
2023/08/19 09:04:28;;;;;;;8.97;8.07;;;29.70;64.40;;;;;;5138245;28;20624;-48
2023/08/19 09:07:12;;;;;;;8.00;7.20;;;29.40;64.80;;;;;;5141978;28;20438;-48
2023/08/19 09:09:45;;;;;;;8.00;7.30;;;29.20;66.80;;;;;;5126026;28;20840;-49
2023/08/19 09:12:16;;;;;;;25.50;7.87;;;29.00;66.60;;;;;;5143393;28;20464;-47
2023/08/19 09:14:51;;;;;;;6.90;6.30;;;29.00;67.60;;;;;;5141700;28;20464;-47
2023/08/19 09:17:22;;;;;;;8.40;7.60;;;29.10;68.70;;;;;;5140831;28;20758;-49
2023/08/19 09:19:52;;;;;;;9.13;7.60;;;29.20;68.60;;;;;;5129691;28;20464;-47
2023/08/19 09:22:24;;;;;;;8.43;7.63;;;29.00;67.80;;;;;;5145389;28;20198;-47
2023/08/19 09:24:54;;;;;;;8.43;7.20;;;28.70;70.20;;;;;;5149075;28;20280;-47
2023/08/19 09:27:27;;;;;;;6.73;6.13;;;28.70;71.10;;;;;;5145083;28;20523;-47
2023/08/19 09:29:58;;;;;;;8.70;6.87;;;28.80;70.50;;;;;;5146633;28;20185;-47
2023/08/19 09:32:35;;;;;;;14.07;7.63;;;28.90;71.10;;;;;;5128470;28;20452;-46
2023/08/19 09:35:14;;;;;;;7.17;6.50;;;28.90;71.30;;;;;;5131537;28;20440;-48
2023/08/19 09:37:45;;;;;;;9.53;6.90;;;28.90;71.10;;;;;;5129011;28;20456;-48
2023/08/19 09:40:21;;;;;;;13.13;7.50;;;28.90;72.00;;;;;;5145886;28;20486;-47
2023/08/19 09:42:51;;;;;;;8.67;7.87;;;29.10;72.20;;;;;;5129702;28;20228;-46
2023/08/19 09:45:26;;;;;;;8.73;7.93;;;29.10;72.80;;;;;;5145117;28;20444;-46
2023/08/19 09:47:56;;;;;;;11.50;7.67;;;28.90;73.90;;;;;;5129109;28;20569;-47
2023/08/19 09:50:27;;;;;;;8.30;7.10;;;28.80;74.30;;;;;;5129510;28;20441;-48
2023/08/19 09:52:59;;;;;;;11.40;6.80;;;29.00;73.60;;;;;;5146272;28;20178;-47
2023/08/19 09:55:34;;;;;;;7.83;6.20;;;29.10;73.30;;;;;;5144287;28;20447;-49
2023/08/19 09:58:04;;;;;;;6.57;5.97;;;29.20;71.50;;;;;;5146933;28;20754;-47
2023/08/19 10:00:35;;;;;;;5.70;5.30;;;29.20;70.50;;;;;;5129190;28;20538;-46
2023/08/19 10:03:06;;;;;;;7.90;6.47;;;29.20;69.30;;;;;;5145314;28;20260;-48
2023/08/19 10:05:42;;;;;;;4.70;4.40;;;29.10;70.00;;;;;;5145863;28;20197;-46
2023/08/19 10:08:22;;;;;;;4.80;4.50;;;29.10;68.00;;;;;;5145534;28;20488;-49
2023/08/19 10:10:52;;;;;;;9.80;5.20;;;29.10;67.50;;;;;;5129290;28;20478;-46
2023/08/19 10:13:25;;;;;;;6.70;5.90;;;29.10;69.50;;;;;;5146145;28;20600;-46
2023/08/19 10:15:58;;;;;;;5.23;4.87;;;29.10;69.40;;;;;;5142154;28;20186;-47
2023/08/19 10:18:33;;;;;;;7.33;5.63;;;29.10;68.00;;;;;;5144017;28;20475;-47
2023/08/19 10:21:08;;;;;;;5.27;4.90;;;29.10;68.70;;;;;;5138282;28;20503;-47
2023/08/19 10:23:42;;;;;;;5.70;5.23;;;29.30;69.70;;;;;;5128127;28;20440;-48
2023/08/19 10:26:15;;;;;;;6.00;5.40;;;29.50;69.30;;;;;;5143112;28;20433;-47
2023/08/19 10:29:07;;;;;;;5.60;5.30;;;29.70;68.80;;;;;;5142767;28;20523;-46
2023/08/19 10:31:38;;;;;;;7.73;5.50;;;29.90;68.80;;;;;;5145023;28;20459;-48
2023/08/19 10:34:13;;;;;;;6.60;5.97;;;29.90;68.10;;;;;;5128313;28;20515;-46
2023/08/19 10:36:44;;;;;;;6.33;5.73;;;29.80;68.20;;;;;;5129384;28;20467;-47
2023/08/19 10:39:16;;;;;;;5.80;5.40;;;29.70;68.40;;;;;;5129158;28;20464;-46
2023/08/19 10:41:50;;;;;;;7.10;6.10;;;29.60;68.90;;;;;;5129035;28;20229;-49
2023/08/19 10:44:33;;;;;;;7.40;6.17;;;29.60;69.20;;;;;;5145954;28;20937;-49
2023/08/19 10:47:14;;;;;;;9.30;5.67;;;29.70;69.90;;;;;;5129163;28;20471;-47
2023/08/19 10:49:47;;;;;;;5.73;5.23;;;29.90;68.70;;;;;;5141464;28;20955;-47
2023/08/19 10:52:21;;;;;;;5.77;5.27;;;30.00;69.20;;;;;;5145603;28;20488;-48
2023/08/19 10:54:51;;;;;;;6.17;5.67;;;30.10;69.40;;;;;;5128389;28;20432;-48
2023/08/19 10:57:27;;;;;;;6.93;5.80;;;30.30;68.70;;;;;;5144244;28;20536;-47
2023/08/19 10:59:59;;;;;;;5.80;5.23;;;30.50;68.60;;;;;;5145467;28;20693;-48
2023/08/19 11:02:31;;;;;;;6.80;6.07;;;30.60;68.00;;;;;;5130445;28;21043;-48
2023/08/19 11:05:03;;;;;;;5.97;5.57;;;30.70;67.60;;;;;;5145822;28;20428;-47
2023/08/19 11:07:33;;;;;;;6.43;5.83;;;30.70;66.80;;;;;;5142528;28;20189;-47
2023/08/19 11:10:04;;;;;;;7.37;6.07;;;30.70;66.80;;;;;;5141992;28;20627;-46
2023/08/19 11:12:35;;;;;;;5.77;5.37;;;30.70;66.50;;;;;;5143306;28;20212;-47
2023/08/19 11:15:06;;;;;;;6.87;6.20;;;30.70;65.20;;;;;;5144305;28;20272;-47
2023/08/19 11:17:37;;;;;;;9.80;5.47;;;30.60;66.10;;;;;;5142907;28;20193;-50
2023/08/19 11:20:12;;;;;;;5.90;5.50;;;30.60;65.60;;;;;;5127301;28;20536;-48
2023/08/19 11:22:47;;;;;;;6.63;5.97;;;30.70;64.90;;;;;;5142434;28;20231;-46
2023/08/19 11:25:19;;;;;;;6.90;6.30;;;30.80;65.20;;;;;;5128419;28;20428;-47
2023/08/19 11:27:50;;;;;;;6.00;5.40;;;30.80;65.50;;;;;;5144811;28;20429;-47
2023/08/19 11:30:21;;;;;;;9.20;7.57;;;30.90;65.80;;;;;;5141518;28;20445;-46
2023/08/19 11:32:51;;;;;;;10.63;7.73;;;30.80;66.10;;;;;;5133152;28;20193;-47
2023/08/19 11:35:22;;;;;;;7.57;6.40;;;30.60;66.50;;;;;;5128063;28;20539;-48
2023/08/19 11:37:53;;;;;;;9.67;6.73;;;30.40;67.60;;;;;;5143053;28;20272;-47
2023/08/19 11:40:32;;;;;;;6.57;6.00;;;30.40;67.30;;;;;;5144327;28;20645;-47
2023/08/19 11:43:07;;;;;;;10.17;8.57;;;30.30;67.70;;;;;;5146032;28;20280;-47
2023/08/19 11:45:39;;;;;;;7.67;7.07;;;30.20;67.40;;;;;;5127237;28;20987;-47
2023/08/19 11:48:14;;;;;;;7.07;6.37;;;30.10;67.80;;;;;;5126747;28;20445;-47
2023/08/19 11:50:47;;;;;;;9.10;7.10;;;30.20;68.40;;;;;;5143781;28;20569;-47
2023/08/19 11:53:23;;;;;;;6.23;5.70;;;30.40;67.90;;;;;;5127495;28;20941;-47
2023/08/19 11:56:00;;;;;;;11.63;6.77;;;30.50;67.60;;;;;;5142315;28;20969;-46
2023/08/19 11:58:57;;;;;;;6.80;6.13;;;30.60;66.40;;;;;;5142645;28;20428;-48
2023/08/19 12:01:28;;;;;;;12.67;6.00;;;30.50;66.30;;;;;;5140571;28;20464;-47
2023/08/19 12:03:58;;;;;;;5.70;5.40;;;30.60;66.30;;;;;;5130463;28;20789;-47
2023/08/19 12:06:32;;;;;;;12.40;6.43;;;30.70;66.80;;;;;;5142081;28;20271;-46
2023/08/19 12:09:03;;;;;;;9.60;6.13;;;30.70;66.00;;;;;;5139460;28;20188;-47
2023/08/19 12:11:35;;;;;;;6.33;5.83;;;30.80;65.30;;;;;;5124793;28;20468;-47
2023/08/19 12:14:06;;;;;;;5.40;4.90;;;31.00;64.60;;;;;;5126416;28;20538;-48
2023/08/19 12:16:37;;;;;;;5.50;5.00;;;31.10;62.70;;;;;;5136400;28;20967;-47
2023/08/19 12:19:08;;;;;;;6.07;5.47;;;31.10;60.40;;;;;;5143599;28;20280;-47
2023/08/19 12:21:39;;;;;;;6.17;5.00;;;31.10;59.60;;;;;;5142662;28;20208;-46
2023/08/19 12:24:09;;;;;;;5.90;5.40;;;31.10;59.30;;;;;;5142634;28;20184;-47
2023/08/19 12:26:40;;;;;;;5.93;5.37;;;31.10;59.80;;;;;;5143514;28;20205;-48
2023/08/19 12:29:11;;;;;;;7.50;5.60;;;31.30;59.40;;;;;;5142219;28;20192;-47
2023/08/19 12:31:41;;;;;;;5.60;5.10;;;31.30;59.40;;;;;;5125613;28;20307;-47
2023/08/19 12:34:15;;;;;;;6.80;6.20;;;31.50;59.10;;;;;;5125518;28;20550;-47
2023/08/19 12:36:46;;;;;;;5.63;5.13;;;31.40;58.40;;;;;;5143422;28;20562;-47
2023/08/19 12:39:17;;;;;;;6.20;5.80;;;31.40;59.30;;;;;;5126562;28;20212;-48
2023/08/19 12:41:48;;;;;;;7.70;5.83;;;31.50;60.30;;;;;;5141350;28;20204;-48
2023/08/19 12:44:19;;;;;;;4.90;4.60;;;31.50;59.40;;;;;;5143044;28;20188;-49
2023/08/19 12:46:51;;;;;;;7.47;5.80;;;31.60;59.20;;;;;;5142083;28;20181;-47
2023/08/19 12:49:22;;;;;;;5.57;5.07;;;31.60;58.30;;;;;;5144422;28;20185;-48
2023/08/19 12:51:52;;;;;;;6.10;5.60;;;31.40;58.60;;;;;;5127274;28;20314;-48
2023/08/19 12:54:23;;;;;;;6.20;5.60;;;31.30;58.90;;;;;;5146212;28;20181;-49
2023/08/19 12:56:54;;;;;;;7.27;6.57;;;31.30;59.00;;;;;;5147601;28;20224;-48
2023/08/19 12:59:25;;;;;;;7.57;6.67;;;31.30;59.60;;;;;;5131001;28;20697;-48